sensor_id;sensor_type;location;lat;lon;timestamp;P1;durP1;ratioP1;P2;durP2;ratioP2
69841;SDS011;57138;51.326;-0.068;2022-09-03T00:05:02;40.95;;;31.40;;
69841;SDS011;57138;51.326;-0.068;2022-09-03T00:07:50;45.00;;;31.87;;
69841;SDS011;57138;51.326;-0.068;2022-09-03T00:10:29;40.83;;;33.00;;
69841;SDS011;57138;51.326;-0.068;2022-09-03T00:13:00;42.67;;;33.53;;
69841;SDS011;57138;51.326;-0.068;2022-09-03T00:15:30;43.17;;;34.45;;
69841;SDS011;57138;51.326;-0.068;2022-09-03T00:17:59;46.15;;;36.55;;
69841;SDS011;57138;51.326;-0.068;2022-09-03T00:20:30;42.80;;;33.03;;
69841;SDS011;57138;51.326;-0.068;2022-09-03T00:23:03;38.17;;;31.35;;
69841;SDS011;57138;51.326;-0.068;2022-09-03T00:28:14;36.20;;;26.50;;
69841;SDS011;57138;51.326;-0.068;2022-09-03T00:30:45;40.58;;;28.98;;
69841;SDS011;57138;51.326;-0.068;2022-09-03T00:33:21;42.78;;;31.98;;
69841;SDS011;57138;51.326;-0.068;2022-09-03T00:36:09;41.53;;;31.35;;
69841;SDS011;57138;51.326;-0.068;2022-09-03T00:38:40;42.65;;;31.80;;
69841;SDS011;57138;51.326;-0.068;2022-09-03T00:41:22;51.55;;;33.83;;
69841;SDS011;57138;51.326;-0.068;2022-09-03T00:55:02;55.90;;;43.75;;
69841;SDS011;57138;51.326;-0.068;2022-09-03T01:00:17;59.80;;;45.35;;
69841;SDS011;57138;51.326;-0.068;2022-09-03T01:02:47;57.83;;;45.40;;
69841;SDS011;57138;51.326;-0.068;2022-09-03T01:08:19;61.60;;;47.65;;
69841;SDS011;57138;51.326;-0.068;2022-09-03T01:13:42;66.22;;;48.05;;
69841;SDS011;57138;51.326;-0.068;2022-09-03T01:18:59;54.22;;;46.67;;
69841;SDS011;57138;51.326;-0.068;2022-09-03T01:24:35;57.63;;;47.10;;
69841;SDS011;57138;51.326;-0.068;2022-09-03T01:29:43;61.30;;;48.60;;
69841;SDS011;57138;51.326;-0.068;2022-09-03T01:35:16;59.67;;;45.40;;
69841;SDS011;57138;51.326;-0.068;2022-09-03T01:38:11;57.17;;;43.85;;
69841;SDS011;57138;51.326;-0.068;2022-09-03T01:46:36;58.22;;;43.20;;
69841;SDS011;57138;51.326;-0.068;2022-09-03T01:49:07;54.42;;;42.78;;
69841;SDS011;57138;51.326;-0.068;2022-09-03T01:55:05;54.03;;;43.92;;
69841;SDS011;57138;51.326;-0.068;2022-09-03T01:57:47;55.88;;;42.60;;
69841;SDS011;57138;51.326;-0.068;2022-09-03T02:00:20;58.95;;;42.65;;
69841;SDS011;57138;51.326;-0.068;2022-09-03T02:02:46;56.35;;;43.47;;
69841;SDS011;57138;51.326;-0.068;2022-09-03T02:07:47;61.92;;;46.10;;
69841;SDS011;57138;51.326;-0.068;2022-09-03T02:10:21;61.03;;;46.47;;
69841;SDS011;57138;51.326;-0.068;2022-09-03T02:13:17;62.60;;;48.15;;
69841;SDS011;57138;51.326;-0.068;2022-09-03T02:15:46;60.20;;;47.67;;
69841;SDS011;57138;51.326;-0.068;2022-09-03T02:18:17;62.50;;;48.05;;
69841;SDS011;57138;51.326;-0.068;2022-09-03T02:20:48;71.22;;;49.92;;
69841;SDS011;57138;51.326;-0.068;2022-09-03T02:23:17;59.92;;;48.05;;
69841;SDS011;57138;51.326;-0.068;2022-09-03T02:25:47;69.75;;;51.00;;
69841;SDS011;57138;51.326;-0.068;2022-09-03T02:28:16;63.00;;;51.05;;
69841;SDS011;57138;51.326;-0.068;2022-09-03T02:30:42;69.45;;;51.72;;
69841;SDS011;57138;51.326;-0.068;2022-09-03T02:33:07;63.20;;;50.90;;
69841;SDS011;57138;51.326;-0.068;2022-09-03T02:35:41;67.38;;;52.78;;
69841;SDS011;57138;51.326;-0.068;2022-09-03T02:38:15;69.57;;;53.15;;
69841;SDS011;57138;51.326;-0.068;2022-09-03T02:40:43;63.25;;;50.65;;
69841;SDS011;57138;51.326;-0.068;2022-09-03T02:43:11;71.05;;;52.95;;
69841;SDS011;57138;51.326;-0.068;2022-09-03T02:45:47;68.93;;;54.58;;
69841;SDS011;57138;51.326;-0.068;2022-09-03T02:48:19;67.85;;;51.00;;
69841;SDS011;57138;51.326;-0.068;2022-09-03T02:50:48;68.10;;;50.95;;
69841;SDS011;57138;51.326;-0.068;2022-09-03T02:53:13;67.97;;;50.85;;
69841;SDS011;57138;51.326;-0.068;2022-09-03T02:55:39;67.55;;;50.45;;
69841;SDS011;57138;51.326;-0.068;2022-09-03T02:58:05;62.05;;;49.92;;
69841;SDS011;57138;51.326;-0.068;2022-09-03T03:00:32;66.15;;;50.80;;
69841;SDS011;57138;51.326;-0.068;2022-09-03T03:02:59;71.55;;;52.20;;
69841;SDS011;57138;51.326;-0.068;2022-09-03T03:05:29;78.18;;;50.22;;
69841;SDS011;57138;51.326;-0.068;2022-09-03T03:08:05;70.68;;;52.33;;
69841;SDS011;57138;51.326;-0.068;2022-09-03T03:10:33;62.97;;;52.88;;
69841;SDS011;57138;51.326;-0.068;2022-09-03T03:12:59;69.85;;;51.25;;
69841;SDS011;57138;51.326;-0.068;2022-09-03T03:15:25;66.57;;;51.63;;
69841;SDS011;57138;51.326;-0.068;2022-09-03T03:17:54;73.20;;;52.92;;
69841;SDS011;57138;51.326;-0.068;2022-09-03T03:20:21;64.20;;;50.97;;
69841;SDS011;57138;51.326;-0.068;2022-09-03T03:22:46;68.30;;;51.97;;
69841;SDS011;57138;51.326;-0.068;2022-09-03T03:25:11;68.05;;;53.60;;
69841;SDS011;57138;51.326;-0.068;2022-09-03T03:27:37;63.00;;;52.97;;
69841;SDS011;57138;51.326;-0.068;2022-09-03T03:30:05;63.72;;;51.67;;
69841;SDS011;57138;51.326;-0.068;2022-09-03T03:32:34;69.10;;;54.50;;
69841;SDS011;57138;51.326;-0.068;2022-09-03T03:35:01;67.55;;;53.08;;
69841;SDS011;57138;51.326;-0.068;2022-09-03T03:37:26;68.38;;;53.83;;
69841;SDS011;57138;51.326;-0.068;2022-09-03T03:39:51;69.65;;;54.22;;
69841;SDS011;57138;51.326;-0.068;2022-09-03T03:42:17;65.53;;;52.22;;
69841;SDS011;57138;51.326;-0.068;2022-09-03T03:44:42;70.68;;;55.95;;
69841;SDS011;57138;51.326;-0.068;2022-09-03T03:47:08;74.30;;;55.97;;
69841;SDS011;57138;51.326;-0.068;2022-09-03T03:49:33;76.72;;;54.83;;
69841;SDS011;57138;51.326;-0.068;2022-09-03T03:51:59;69.57;;;54.47;;
69841;SDS011;57138;51.326;-0.068;2022-09-03T03:54:24;73.32;;;54.83;;
69841;SDS011;57138;51.326;-0.068;2022-09-03T03:56:50;75.93;;;58.65;;
69841;SDS011;57138;51.326;-0.068;2022-09-03T03:59:15;74.45;;;59.22;;
69841;SDS011;57138;51.326;-0.068;2022-09-03T04:01:41;73.45;;;56.42;;
69841;SDS011;57138;51.326;-0.068;2022-09-03T04:04:06;75.63;;;55.72;;
69841;SDS011;57138;51.326;-0.068;2022-09-03T04:06:32;70.57;;;56.13;;
69841;SDS011;57138;51.326;-0.068;2022-09-03T04:08:57;78.70;;;57.72;;
69841;SDS011;57138;51.326;-0.068;2022-09-03T04:11:23;70.00;;;54.15;;
69841;SDS011;57138;51.326;-0.068;2022-09-03T04:13:49;69.30;;;53.58;;
69841;SDS011;57138;51.326;-0.068;2022-09-03T04:16:16;65.95;;;52.00;;
69841;SDS011;57138;51.326;-0.068;2022-09-03T04:18:42;70.03;;;50.55;;
69841;SDS011;57138;51.326;-0.068;2022-09-03T04:21:09;74.10;;;53.72;;
69841;SDS011;57138;51.326;-0.068;2022-09-03T04:23:37;65.47;;;51.15;;
69841;SDS011;57138;51.326;-0.068;2022-09-03T04:26:05;69.28;;;49.40;;
69841;SDS011;57138;51.326;-0.068;2022-09-03T04:28:31;70.15;;;51.55;;
69841;SDS011;57138;51.326;-0.068;2022-09-03T04:31:03;77.53;;;52.58;;
69841;SDS011;57138;51.326;-0.068;2022-09-03T04:33:30;76.18;;;52.70;;
69841;SDS011;57138;51.326;-0.068;2022-09-03T04:36:03;61.80;;;46.50;;
69841;SDS011;57138;51.326;-0.068;2022-09-03T04:38:34;60.08;;;46.45;;
69841;SDS011;57138;51.326;-0.068;2022-09-03T04:41:01;64.93;;;46.67;;
69841;SDS011;57138;51.326;-0.068;2022-09-03T04:43:30;67.90;;;49.70;;
69841;SDS011;57138;51.326;-0.068;2022-09-03T04:45:59;72.05;;;52.20;;
69841;SDS011;57138;51.326;-0.068;2022-09-03T04:48:30;71.68;;;47.88;;
69841;SDS011;57138;51.326;-0.068;2022-09-03T04:51:03;67.00;;;54.17;;
69841;SDS011;57138;51.326;-0.068;2022-09-03T04:53:32;78.38;;;57.15;;
69841;SDS011;57138;51.326;-0.068;2022-09-03T04:55:58;76.15;;;57.17;;
69841;SDS011;57138;51.326;-0.068;2022-09-03T04:58:24;86.38;;;60.05;;
69841;SDS011;57138;51.326;-0.068;2022-09-03T05:00:49;88.95;;;59.55;;
69841;SDS011;57138;51.326;-0.068;2022-09-03T05:03:15;98.72;;;63.92;;
69841;SDS011;57138;51.326;-0.068;2022-09-03T05:05:41;88.25;;;61.38;;
69841;SDS011;57138;51.326;-0.068;2022-09-03T05:08:06;87.22;;;59.95;;
69841;SDS011;57138;51.326;-0.068;2022-09-03T05:10:32;89.95;;;61.47;;
69841;SDS011;57138;51.326;-0.068;2022-09-03T05:13:02;90.95;;;61.03;;
69841;SDS011;57138;51.326;-0.068;2022-09-03T05:15:29;95.35;;;62.17;;
69841;SDS011;57138;51.326;-0.068;2022-09-03T05:17:57;87.90;;;58.80;;
69841;SDS011;57138;51.326;-0.068;2022-09-03T05:20:25;87.85;;;59.58;;
69841;SDS011;57138;51.326;-0.068;2022-09-03T05:22:50;84.20;;;57.22;;
69841;SDS011;57138;51.326;-0.068;2022-09-03T05:25:17;84.35;;;54.83;;
69841;SDS011;57138;51.326;-0.068;2022-09-03T05:27:43;75.50;;;52.00;;
69841;SDS011;57138;51.326;-0.068;2022-09-03T05:30:08;69.25;;;51.15;;
69841;SDS011;57138;51.326;-0.068;2022-09-03T05:32:34;79.97;;;54.85;;
69841;SDS011;57138;51.326;-0.068;2022-09-03T05:34:59;75.15;;;52.72;;
69841;SDS011;57138;51.326;-0.068;2022-09-03T05:37:25;82.10;;;53.70;;
69841;SDS011;57138;51.326;-0.068;2022-09-03T05:39:50;90.78;;;55.95;;
69841;SDS011;57138;51.326;-0.068;2022-09-03T05:42:15;81.10;;;56.15;;
69841;SDS011;57138;51.326;-0.068;2022-09-03T05:44:41;77.10;;;51.97;;
69841;SDS011;57138;51.326;-0.068;2022-09-03T05:47:07;74.53;;;51.28;;
69841;SDS011;57138;51.326;-0.068;2022-09-03T05:49:33;76.68;;;49.80;;
69841;SDS011;57138;51.326;-0.068;2022-09-03T05:51:58;74.90;;;49.60;;
69841;SDS011;57138;51.326;-0.068;2022-09-03T05:54:24;81.25;;;53.45;;
69841;SDS011;57138;51.326;-0.068;2022-09-03T05:56:50;82.85;;;53.60;;
69841;SDS011;57138;51.326;-0.068;2022-09-03T05:59:15;80.22;;;54.22;;
69841;SDS011;57138;51.326;-0.068;2022-09-03T06:01:41;80.60;;;53.17;;
69841;SDS011;57138;51.326;-0.068;2022-09-03T06:04:12;90.07;;;60.92;;
69841;SDS011;57138;51.326;-0.068;2022-09-03T06:06:40;96.93;;;63.25;;
69841;SDS011;57138;51.326;-0.068;2022-09-03T06:09:08;85.82;;;59.70;;
69841;SDS011;57138;51.326;-0.068;2022-09-03T06:11:35;91.55;;;60.92;;
69841;SDS011;57138;51.326;-0.068;2022-09-03T06:14:03;89.78;;;59.33;;
69841;SDS011;57138;51.326;-0.068;2022-09-03T06:16:30;77.93;;;57.90;;
69841;SDS011;57138;51.326;-0.068;2022-09-03T06:18:58;82.95;;;58.97;;
69841;SDS011;57138;51.326;-0.068;2022-09-03T06:21:24;78.32;;;60.13;;
69841;SDS011;57138;51.326;-0.068;2022-09-03T06:23:50;75.95;;;59.20;;
69841;SDS011;57138;51.326;-0.068;2022-09-03T06:26:17;77.93;;;58.03;;
69841;SDS011;57138;51.326;-0.068;2022-09-03T06:28:44;74.10;;;56.88;;
69841;SDS011;57138;51.326;-0.068;2022-09-03T06:31:11;74.20;;;58.65;;
69841;SDS011;57138;51.326;-0.068;2022-09-03T06:33:37;70.07;;;57.35;;
69841;SDS011;57138;51.326;-0.068;2022-09-03T06:36:08;82.10;;;58.45;;
69841;SDS011;57138;51.326;-0.068;2022-09-03T06:38:37;77.80;;;58.88;;
69841;SDS011;57138;51.326;-0.068;2022-09-03T06:41:07;81.13;;;62.47;;
69841;SDS011;57138;51.326;-0.068;2022-09-03T06:43:46;74.88;;;58.08;;
69841;SDS011;57138;51.326;-0.068;2022-09-03T06:46:13;71.38;;;55.53;;
69841;SDS011;57138;51.326;-0.068;2022-09-03T06:48:41;68.45;;;54.88;;
69841;SDS011;57138;51.326;-0.068;2022-09-03T06:51:17;71.15;;;54.65;;
69841;SDS011;57138;51.326;-0.068;2022-09-03T06:53:48;64.50;;;48.92;;
69841;SDS011;57138;51.326;-0.068;2022-09-03T06:56:16;56.95;;;48.70;;
69841;SDS011;57138;51.326;-0.068;2022-09-03T06:58:45;44.08;;;36.20;;
69841;SDS011;57138;51.326;-0.068;2022-09-03T07:03:40;42.58;;;36.50;;
69841;SDS011;57138;51.326;-0.068;2022-09-03T07:06:08;33.25;;;27.40;;
69841;SDS011;57138;51.326;-0.068;2022-09-03T07:08:38;30.58;;;24.58;;
69841;SDS011;57138;51.326;-0.068;2022-09-03T07:11:14;30.52;;;21.13;;
69841;SDS011;57138;51.326;-0.068;2022-09-03T07:13:43;31.98;;;23.58;;
69841;SDS011;57138;51.326;-0.068;2022-09-03T07:16:16;23.98;;;19.95;;
69841;SDS011;57138;51.326;-0.068;2022-09-03T07:18:43;23.70;;;19.52;;
69841;SDS011;57138;51.326;-0.068;2022-09-03T07:21:11;22.20;;;18.08;;
69841;SDS011;57138;51.326;-0.068;2022-09-03T07:23:38;22.73;;;18.08;;
69841;SDS011;57138;51.326;-0.068;2022-09-03T07:26:08;21.65;;;17.10;;
69841;SDS011;57138;51.326;-0.068;2022-09-03T07:28:37;16.35;;;13.60;;
69841;SDS011;57138;51.326;-0.068;2022-09-03T07:31:04;18.95;;;14.95;;
69841;SDS011;57138;51.326;-0.068;2022-09-03T07:33:32;19.90;;;13.60;;
69841;SDS011;57138;51.326;-0.068;2022-09-03T07:36:02;18.88;;;12.85;;
69841;SDS011;57138;51.326;-0.068;2022-09-03T07:38:30;15.82;;;11.10;;
69841;SDS011;57138;51.326;-0.068;2022-09-03T07:40:57;15.68;;;11.73;;
69841;SDS011;57138;51.326;-0.068;2022-09-03T07:43:27;15.05;;;11.88;;
69841;SDS011;57138;51.326;-0.068;2022-09-03T07:45:54;15.93;;;11.93;;
69841;SDS011;57138;51.326;-0.068;2022-09-03T07:48:21;14.07;;;12.07;;
69841;SDS011;57138;51.326;-0.068;2022-09-03T07:50:47;15.15;;;12.20;;
69841;SDS011;57138;51.326;-0.068;2022-09-03T07:53:14;21.40;;;15.15;;
69841;SDS011;57138;51.326;-0.068;2022-09-03T07:55:40;15.93;;;13.10;;
69841;SDS011;57138;51.326;-0.068;2022-09-03T07:58:07;15.20;;;12.35;;
69841;SDS011;57138;51.326;-0.068;2022-09-03T08:00:32;15.90;;;12.55;;
69841;SDS011;57138;51.326;-0.068;2022-09-03T08:02:58;15.85;;;12.20;;
69841;SDS011;57138;51.326;-0.068;2022-09-03T08:05:33;18.60;;;13.70;;
69841;SDS011;57138;51.326;-0.068;2022-09-03T08:08:01;18.35;;;13.23;;
69841;SDS011;57138;51.326;-0.068;2022-09-03T08:10:28;15.35;;;13.38;;
69841;SDS011;57138;51.326;-0.068;2022-09-03T08:12:55;16.17;;;12.93;;
69841;SDS011;57138;51.326;-0.068;2022-09-03T08:15:21;17.60;;;13.70;;
69841;SDS011;57138;51.326;-0.068;2022-09-03T08:17:47;17.27;;;12.90;;
69841;SDS011;57138;51.326;-0.068;2022-09-03T08:20:13;19.33;;;13.80;;
69841;SDS011;57138;51.326;-0.068;2022-09-03T08:22:40;20.35;;;13.18;;
69841;SDS011;57138;51.326;-0.068;2022-09-03T08:25:06;19.73;;;14.88;;
69841;SDS011;57138;51.326;-0.068;2022-09-03T08:27:32;21.17;;;16.08;;
69841;SDS011;57138;51.326;-0.068;2022-09-03T08:29:57;21.95;;;17.95;;
69841;SDS011;57138;51.326;-0.068;2022-09-03T08:32:23;22.15;;;17.60;;
69841;SDS011;57138;51.326;-0.068;2022-09-03T08:34:49;21.95;;;18.20;;
69841;SDS011;57138;51.326;-0.068;2022-09-03T08:37:16;25.63;;;19.65;;
69841;SDS011;57138;51.326;-0.068;2022-09-03T08:39:42;22.23;;;18.17;;
69841;SDS011;57138;51.326;-0.068;2022-09-03T08:45:18;24.88;;;19.67;;
69841;SDS011;57138;51.326;-0.068;2022-09-03T08:47:47;25.75;;;19.35;;
69841;SDS011;57138;51.326;-0.068;2022-09-03T08:50:23;23.80;;;19.95;;
69841;SDS011;57138;51.326;-0.068;2022-09-03T08:55:52;19.65;;;16.23;;
69841;SDS011;57138;51.326;-0.068;2022-09-03T08:58:30;20.08;;;16.52;;
69841;SDS011;57138;51.326;-0.068;2022-09-03T09:04:04;19.38;;;15.60;;
69841;SDS011;57138;51.326;-0.068;2022-09-03T09:06:52;18.33;;;14.02;;
69841;SDS011;57138;51.326;-0.068;2022-09-03T09:15:25;18.20;;;13.50;;
69841;SDS011;57138;51.326;-0.068;2022-09-03T09:18:19;17.30;;;14.63;;
69841;SDS011;57138;51.326;-0.068;2022-09-03T09:21:16;21.73;;;12.50;;
69841;SDS011;57138;51.326;-0.068;2022-09-03T09:23:48;18.65;;;11.77;;
69841;SDS011;57138;51.326;-0.068;2022-09-03T09:26:18;14.68;;;11.60;;
69841;SDS011;57138;51.326;-0.068;2022-09-03T09:28:46;17.48;;;14.27;;
69841;SDS011;57138;51.326;-0.068;2022-09-03T09:31:15;16.90;;;14.23;;
69841;SDS011;57138;51.326;-0.068;2022-09-03T09:33:43;19.58;;;14.43;;
69841;SDS011;57138;51.326;-0.068;2022-09-03T09:36:12;20.00;;;14.05;;
69841;SDS011;57138;51.326;-0.068;2022-09-03T09:38:41;18.83;;;12.63;;
69841;SDS011;57138;51.326;-0.068;2022-09-03T09:41:09;15.30;;;12.90;;
69841;SDS011;57138;51.326;-0.068;2022-09-03T09:43:35;15.25;;;11.52;;
69841;SDS011;57138;51.326;-0.068;2022-09-03T09:46:08;15.10;;;10.77;;
69841;SDS011;57138;51.326;-0.068;2022-09-03T09:48:57;17.02;;;12.18;;
69841;SDS011;57138;51.326;-0.068;2022-09-03T09:51:28;16.70;;;12.30;;
69841;SDS011;57138;51.326;-0.068;2022-09-03T09:56:25;15.23;;;9.85;;
69841;SDS011;57138;51.326;-0.068;2022-09-03T09:59:04;12.07;;;9.43;;
69841;SDS011;57138;51.326;-0.068;2022-09-03T10:01:32;15.48;;;11.00;;
69841;SDS011;57138;51.326;-0.068;2022-09-03T10:04:09;13.52;;;10.43;;
69841;SDS011;57138;51.326;-0.068;2022-09-03T10:06:37;13.60;;;10.07;;
69841;SDS011;57138;51.326;-0.068;2022-09-03T10:09:27;12.27;;;9.68;;
69841;SDS011;57138;51.326;-0.068;2022-09-03T10:12:08;11.63;;;8.18;;
69841;SDS011;57138;51.326;-0.068;2022-09-03T10:22:53;8.43;;;5.95;;
69841;SDS011;57138;51.326;-0.068;2022-09-03T10:25:22;12.60;;;6.47;;
69841;SDS011;57138;51.326;-0.068;2022-09-03T10:27:58;8.18;;;5.25;;
69841;SDS011;57138;51.326;-0.068;2022-09-03T10:30:26;9.73;;;6.32;;
69841;SDS011;57138;51.326;-0.068;2022-09-03T10:33:09;8.38;;;4.93;;
69841;SDS011;57138;51.326;-0.068;2022-09-03T10:35:42;8.00;;;4.75;;
69841;SDS011;57138;51.326;-0.068;2022-09-03T10:38:24;6.50;;;4.60;;
69841;SDS011;57138;51.326;-0.068;2022-09-03T10:41:17;9.95;;;5.00;;
69841;SDS011;57138;51.326;-0.068;2022-09-03T10:46:57;8.00;;;4.45;;
69841;SDS011;57138;51.326;-0.068;2022-09-03T10:52:19;10.10;;;4.60;;
69841;SDS011;57138;51.326;-0.068;2022-09-03T11:00:11;6.05;;;3.80;;
69841;SDS011;57138;51.326;-0.068;2022-09-03T11:05:23;7.40;;;3.90;;
69841;SDS011;57138;51.326;-0.068;2022-09-03T11:11:03;7.47;;;3.70;;
69841;SDS011;57138;51.326;-0.068;2022-09-03T11:16:21;6.63;;;3.45;;
69841;SDS011;57138;51.326;-0.068;2022-09-03T11:19:01;6.57;;;3.47;;
69841;SDS011;57138;51.326;-0.068;2022-09-03T11:21:30;7.43;;;4.47;;
69841;SDS011;57138;51.326;-0.068;2022-09-03T11:26:33;6.15;;;4.15;;
69841;SDS011;57138;51.326;-0.068;2022-09-03T11:29:02;5.55;;;3.17;;
69841;SDS011;57138;51.326;-0.068;2022-09-03T11:36:52;4.88;;;3.03;;
69841;SDS011;57138;51.326;-0.068;2022-09-03T11:42:08;7.43;;;3.45;;
69841;SDS011;57138;51.326;-0.068;2022-09-03T11:44:42;7.03;;;4.03;;
69841;SDS011;57138;51.326;-0.068;2022-09-03T11:47:14;6.70;;;3.58;;
69841;SDS011;57138;51.326;-0.068;2022-09-03T11:49:45;7.55;;;4.07;;
69841;SDS011;57138;51.326;-0.068;2022-09-03T11:52:23;6.32;;;3.97;;
69841;SDS011;57138;51.326;-0.068;2022-09-03T11:54:51;8.88;;;4.10;;
69841;SDS011;57138;51.326;-0.068;2022-09-03T11:57:32;8.30;;;3.53;;
69841;SDS011;57138;51.326;-0.068;2022-09-03T12:00:15;7.22;;;3.88;;
69841;SDS011;57138;51.326;-0.068;2022-09-03T12:03:00;5.25;;;3.33;;
69841;SDS011;57138;51.326;-0.068;2022-09-03T12:14:26;7.43;;;2.58;;
69841;SDS011;57138;51.326;-0.068;2022-09-03T12:22:03;5.72;;;2.78;;
69841;SDS011;57138;51.326;-0.068;2022-09-03T12:24:29;8.20;;;4.03;;
69841;SDS011;57138;51.326;-0.068;2022-09-03T12:27:01;4.07;;;2.50;;
69841;SDS011;57138;51.326;-0.068;2022-09-03T12:29:28;7.50;;;3.45;;
69841;SDS011;57138;51.326;-0.068;2022-09-03T12:31:55;8.95;;;3.08;;
69841;SDS011;57138;51.326;-0.068;2022-09-03T12:34:30;24.33;;;5.80;;
69841;SDS011;57138;51.326;-0.068;2022-09-03T12:36:56;5.38;;;2.75;;
69841;SDS011;57138;51.326;-0.068;2022-09-03T12:44:24;6.03;;;2.40;;
69841;SDS011;57138;51.326;-0.068;2022-09-03T12:46:59;6.75;;;2.58;;
69841;SDS011;57138;51.326;-0.068;2022-09-03T12:49:41;5.00;;;2.58;;
69841;SDS011;57138;51.326;-0.068;2022-09-03T12:55:06;6.50;;;2.58;;
69841;SDS011;57138;51.326;-0.068;2022-09-03T12:57:48;6.75;;;2.60;;
69841;SDS011;57138;51.326;-0.068;2022-09-03T13:00:26;4.57;;;2.55;;
69841;SDS011;57138;51.326;-0.068;2022-09-03T13:05:21;5.65;;;2.60;;
69841;SDS011;57138;51.326;-0.068;2022-09-03T13:08:08;5.32;;;3.00;;
69841;SDS011;57138;51.326;-0.068;2022-09-03T13:10:38;7.70;;;3.42;;
69841;SDS011;57138;51.326;-0.068;2022-09-03T13:30:21;4.65;;;2.42;;
69841;SDS011;57138;51.326;-0.068;2022-09-03T13:35:59;5.65;;;3.30;;
69841;SDS011;57138;51.326;-0.068;2022-09-03T13:38:38;6.07;;;3.60;;
69841;SDS011;57138;51.326;-0.068;2022-09-03T13:41:50;5.47;;;3.38;;
69841;SDS011;57138;51.326;-0.068;2022-09-03T13:47:41;5.93;;;3.90;;
69841;SDS011;57138;51.326;-0.068;2022-09-03T13:50:40;5.55;;;4.15;;
69841;SDS011;57138;51.326;-0.068;2022-09-03T13:53:18;12.25;;;6.47;;
69841;SDS011;57138;51.326;-0.068;2022-09-03T13:56:15;8.27;;;5.28;;
69841;SDS011;57138;51.326;-0.068;2022-09-03T14:02:01;8.40;;;4.88;;
69841;SDS011;57138;51.326;-0.068;2022-09-03T14:04:46;6.82;;;4.80;;
69841;SDS011;57138;51.326;-0.068;2022-09-03T14:07:20;9.07;;;5.13;;
69841;SDS011;57138;51.326;-0.068;2022-09-03T14:12:46;8.68;;;4.60;;
69841;SDS011;57138;51.326;-0.068;2022-09-03T14:15:21;8.23;;;4.30;;
69841;SDS011;57138;51.326;-0.068;2022-09-03T14:17:58;8.23;;;3.58;;
69841;SDS011;57138;51.326;-0.068;2022-09-03T14:26:32;8.25;;;3.90;;
69841;SDS011;57138;51.326;-0.068;2022-09-03T14:29:01;5.78;;;3.38;;
69841;SDS011;57138;51.326;-0.068;2022-09-03T14:37:03;4.32;;;2.70;;
69841;SDS011;57138;51.326;-0.068;2022-09-03T14:42:30;6.65;;;3.47;;
69841;SDS011;57138;51.326;-0.068;2022-09-03T14:45:26;6.28;;;3.35;;
69841;SDS011;57138;51.326;-0.068;2022-09-03T14:53:30;4.45;;;3.05;;
69841;SDS011;57138;51.326;-0.068;2022-09-03T14:58:44;6.75;;;3.40;;
69841;SDS011;57138;51.326;-0.068;2022-09-03T15:01:28;11.60;;;3.83;;
69841;SDS011;57138;51.326;-0.068;2022-09-03T15:14:58;11.90;;;5.38;;
69841;SDS011;57138;51.326;-0.068;2022-09-03T15:20:00;10.20;;;4.75;;
69841;SDS011;57138;51.326;-0.068;2022-09-03T15:31:15;11.05;;;5.80;;
69841;SDS011;57138;51.326;-0.068;2022-09-03T15:33:51;9.07;;;5.40;;
69841;SDS011;57138;51.326;-0.068;2022-09-03T15:36:19;12.30;;;5.97;;
69841;SDS011;57138;51.326;-0.068;2022-09-03T15:44:11;10.13;;;6.10;;
69841;SDS011;57138;51.326;-0.068;2022-09-03T15:46:52;11.90;;;5.82;;
69841;SDS011;57138;51.326;-0.068;2022-09-03T15:59:59;13.75;;;6.45;;
69841;SDS011;57138;51.326;-0.068;2022-09-03T16:02:41;10.57;;;6.53;;
69841;SDS011;57138;51.326;-0.068;2022-09-03T16:10:25;12.10;;;6.25;;
69841;SDS011;57138;51.326;-0.068;2022-09-03T16:13:02;10.60;;;6.20;;
69841;SDS011;57138;51.326;-0.068;2022-09-03T16:15:47;10.52;;;7.15;;
69841;SDS011;57138;51.326;-0.068;2022-09-03T16:18:26;10.25;;;5.75;;
69841;SDS011;57138;51.326;-0.068;2022-09-03T16:29:11;9.00;;;5.18;;
69841;SDS011;57138;51.326;-0.068;2022-09-03T16:34:30;11.70;;;6.15;;
69841;SDS011;57138;51.326;-0.068;2022-09-03T17:07:25;8.45;;;5.93;;
69841;SDS011;57138;51.326;-0.068;2022-09-03T17:21:17;13.38;;;6.93;;
69841;SDS011;57138;51.326;-0.068;2022-09-03T17:35:30;10.82;;;7.03;;
69841;SDS011;57138;51.326;-0.068;2022-09-03T17:38:09;13.70;;;6.32;;
69841;SDS011;57138;51.326;-0.068;2022-09-03T17:43:49;9.80;;;7.53;;
69841;SDS011;57138;51.326;-0.068;2022-09-03T17:46:59;12.82;;;7.22;;
69841;SDS011;57138;51.326;-0.068;2022-09-03T17:49:47;12.82;;;8.23;;
69841;SDS011;57138;51.326;-0.068;2022-09-03T17:52:24;15.20;;;7.25;;
69841;SDS011;57138;51.326;-0.068;2022-09-03T17:55:11;14.77;;;8.75;;
69841;SDS011;57138;51.326;-0.068;2022-09-03T17:57:49;17.40;;;8.30;;
69841;SDS011;57138;51.326;-0.068;2022-09-03T18:00:22;19.30;;;9.52;;
69841;SDS011;57138;51.326;-0.068;2022-09-03T18:02:51;14.57;;;7.97;;
69841;SDS011;57138;51.326;-0.068;2022-09-03T18:05:27;12.45;;;8.00;;
69841;SDS011;57138;51.326;-0.068;2022-09-03T18:08:02;12.70;;;8.40;;
69841;SDS011;57138;51.326;-0.068;2022-09-03T18:16:31;10.23;;;7.28;;
69841;SDS011;57138;51.326;-0.068;2022-09-03T18:21:28;15.05;;;8.85;;
69841;SDS011;57138;51.326;-0.068;2022-09-03T18:24:28;16.75;;;8.15;;
69841;SDS011;57138;51.326;-0.068;2022-09-03T18:27:19;16.90;;;8.23;;
69841;SDS011;57138;51.326;-0.068;2022-09-03T18:30:11;13.38;;;7.45;;
69841;SDS011;57138;51.326;-0.068;2022-09-03T18:32:57;13.68;;;7.65;;
69841;SDS011;57138;51.326;-0.068;2022-09-03T18:35:42;11.60;;;7.47;;
69841;SDS011;57138;51.326;-0.068;2022-09-03T18:47:50;14.63;;;7.43;;
69841;SDS011;57138;51.326;-0.068;2022-09-03T18:56:31;19.70;;;8.90;;
69841;SDS011;57138;51.326;-0.068;2022-09-03T18:59:26;18.70;;;9.80;;
69841;SDS011;57138;51.326;-0.068;2022-09-03T19:08:56;27.95;;;14.98;;
69841;SDS011;57138;51.326;-0.068;2022-09-03T19:23:58;22.00;;;12.52;;
69841;SDS011;57138;51.326;-0.068;2022-09-03T19:30:07;16.35;;;7.47;;
69841;SDS011;57138;51.326;-0.068;2022-09-03T19:36:19;21.05;;;12.23;;
69841;SDS011;57138;51.326;-0.068;2022-09-03T19:51:36;14.77;;;6.25;;
69841;SDS011;57138;51.326;-0.068;2022-09-03T19:54:25;17.00;;;10.27;;
69841;SDS011;57138;51.326;-0.068;2022-09-03T19:57:12;30.50;;;15.85;;
69841;SDS011;57138;51.326;-0.068;2022-09-03T19:59:59;48.38;;;26.25;;
69841;SDS011;57138;51.326;-0.068;2022-09-03T20:02:47;35.85;;;17.98;;
69841;SDS011;57138;51.326;-0.068;2022-09-03T20:05:32;18.50;;;10.77;;
69841;SDS011;57138;51.326;-0.068;2022-09-03T20:08:19;28.10;;;15.23;;
69841;SDS011;57138;51.326;-0.068;2022-09-03T20:11:05;29.45;;;14.35;;
69841;SDS011;57138;51.326;-0.068;2022-09-03T20:13:38;22.85;;;12.32;;
69841;SDS011;57138;51.326;-0.068;2022-09-03T20:32:46;20.90;;;9.93;;
69841;SDS011;57138;51.326;-0.068;2022-09-03T20:35:39;18.05;;;8.80;;
69841;SDS011;57138;51.326;-0.068;2022-09-03T20:41:23;14.63;;;8.05;;
69841;SDS011;57138;51.326;-0.068;2022-09-03T20:44:04;15.65;;;8.05;;
69841;SDS011;57138;51.326;-0.068;2022-09-03T20:51:45;12.15;;;7.80;;
69841;SDS011;57138;51.326;-0.068;2022-09-03T20:54:27;15.25;;;6.97;;
69841;SDS011;57138;51.326;-0.068;2022-09-03T20:56:59;16.65;;;7.50;;
69841;SDS011;57138;51.326;-0.068;2022-09-03T20:59:51;13.43;;;7.53;;
69841;SDS011;57138;51.326;-0.068;2022-09-03T21:05:28;11.48;;;7.43;;
69841;SDS011;57138;51.326;-0.068;2022-09-03T21:08:02;14.10;;;8.30;;
69841;SDS011;57138;51.326;-0.068;2022-09-03T21:10:56;15.88;;;8.88;;
69841;SDS011;57138;51.326;-0.068;2022-09-03T21:19:10;14.70;;;9.15;;